Terminal Aerodrome Forecast
Issued by NWS

Home | Current Version | Previous Version | Text Only | Print | Product List | Glossary On
Versions: 1 2 3 4 5 6 7 8 9 10 11 12 13 14 15
000
FTUS42 KMLB 291735
TAFSUA
TAF
KSUA 291735Z 2918/3018 07008KT P6SM VCSH SCT025 BKN070
      TEMPO 2918/2922 3SM SHRA BKN020
     FM300200 00000KT P6SM SCT020 SCT040
     FM301300 32006KT P6SM SCT020 SCT040=

USA.gov is the U.S. government's official web portal to all federal, state and local government web resources and services.